Terminal Aerodrome Forecast
Issued by NWS Cleveland, OH

Home | Current Version | Previous Version | Graphics & Text | Print | Product List | Glossary Off
Versions: 1 2 3 4 5 6 7 8 9 10 11 12 13 14 15 16

000
FTUS41 KCLE 041129
TAFCAK
TAF
KCAK 041129Z 0412/0512 35004KT P6SM FEW200
     FM041400 33006KT P6SM FEW045 SCT200
     FM050100 VRB02KT P6SM FEW250
      TEMPO 0509/0512 4SM BR=

USA.gov is the U.S. government's official web portal to all federal, state and local government web resources and services.